createdAt,value
2022-11-25T00:01:25.866Z,27.23
2022-11-25T00:03:56.088Z,24.90
2022-11-25T00:06:25.809Z,27.57
2022-11-25T00:08:57.310Z,25.40
2022-11-25T00:11:25.632Z,26.50
2022-11-25T00:13:54.451Z,27.07
2022-11-25T00:16:26.495Z,27.67
2022-11-25T00:18:55.832Z,26.87
2022-11-25T00:21:26.050Z,24.90
2022-11-25T00:23:55.260Z,25.47
2022-11-25T00:26:24.430Z,25.77
2022-11-25T00:28:53.385Z,26.27
2022-11-25T00:31:25.417Z,25.43
2022-11-25T00:33:54.049Z,26.73
2022-11-25T00:36:24.272Z,25.63
2022-11-25T00:38:55.323Z,23.57
2022-11-25T00:41:41.512Z,25.90
2022-11-25T00:44:29.658Z,26.10
2022-11-25T00:46:59.579Z,27.17
2022-11-25T00:49:28.523Z,27.53
2022-11-25T00:51:57.116Z,28.20
2022-11-25T00:54:25.457Z,27.80
2022-11-25T00:56:53.677Z,27.93
2022-11-25T00:59:21.917Z,25.93
2022-11-25T01:01:50.496Z,27.93
2022-11-25T01:04:19.989Z,27.03
2022-11-25T01:06:48.100Z,27.30
2022-11-25T01:09:16.494Z,26.83
2022-11-25T01:11:45.365Z,26.77
2022-11-25T01:14:13.541Z,25.57
2022-11-25T01:16:41.764Z,25.67
2022-11-25T01:19:09.944Z,28.57
2022-11-25T01:21:39.945Z,29.63
2022-11-25T01:24:09.866Z,28.33
2022-11-25T01:26:38.225Z,27.63
2022-11-25T01:29:08.264Z,29.03
2022-11-25T01:31:37.913Z,29.40
2022-11-25T01:34:08.090Z,27.63
2022-11-25T01:36:36.133Z,26.10
2022-11-25T01:39:06.439Z,28.83
2022-11-25T01:41:36.141Z,26.47
2022-11-25T01:44:12.806Z,29.03
2022-11-25T01:46:52.469Z,29.50
2022-11-25T01:49:25.586Z,28.87
2022-11-25T01:51:58.689Z,29.03
2022-11-25T01:54:32.634Z,29.90
2022-11-25T01:57:13.672Z,29.70
2022-11-25T01:59:46.320Z,28.33
2022-11-25T02:02:16.108Z,26.80
2022-11-25T02:04:45.973Z,28.13
2022-11-25T02:07:19.924Z,27.03
2022-11-25T02:09:51.188Z,27.97
2022-11-25T02:12:21.560Z,27.93
2022-11-25T02:14:51.889Z,28.17
2022-11-25T02:17:20.722Z,27.07
2022-11-25T02:19:59.731Z,26.90
2022-11-25T02:22:35.664Z,26.93
2022-11-25T02:25:11.537Z,26.50
2022-11-25T02:27:39.694Z,27.93
2022-11-25T02:30:09.293Z,28.43
2022-11-25T02:32:37.563Z,29.50
2022-11-25T02:35:38.090Z,27.43
2022-11-25T02:38:09.902Z,27.70
2022-11-25T02:40:45.627Z,29.07
2022-11-25T02:43:13.783Z,29.77
2022-11-25T02:45:51.296Z,28.47
2022-11-25T02:48:19.578Z,27.23
2022-11-25T02:50:47.615Z,27.07
2022-11-25T02:53:16.446Z,26.37
2022-11-25T02:55:46.055Z,28.03
2022-11-25T02:58:14.669Z,28.07
2022-11-25T03:00:43.577Z,29.70
2022-11-25T03:03:12.101Z,29.93
2022-11-25T03:05:40.188Z,28.53
2022-11-25T03:08:08.852Z,30.40
2022-11-25T03:10:37.012Z,28.77
2022-11-25T03:13:06.589Z,30.27
2022-11-25T03:15:35.188Z,29.90
2022-11-25T03:18:05.716Z,29.20
2022-11-25T03:20:35.246Z,29.90
2022-11-25T03:23:03.480Z,29.90
2022-11-25T03:25:31.639Z,27.03
2022-11-25T03:27:59.893Z,27.70
2022-11-25T03:30:31.568Z,29.50
2022-11-25T03:32:59.651Z,28.93
2022-11-25T03:35:28.316Z,29.53
2022-11-25T03:37:56.566Z,30.93
2022-11-25T03:40:24.643Z,29.33
2022-11-25T03:42:52.811Z,30.67
2022-11-25T03:45:21.131Z,29.70
2022-11-25T03:47:50.658Z,28.50
2022-11-25T03:50:18.965Z,30.80
2022-11-25T03:52:47.073Z,31.03
2022-11-25T03:55:15.384Z,32.73
2022-11-25T03:57:43.589Z,33.93
2022-11-25T04:00:12.923Z,31.47
2022-11-25T04:02:41.037Z,31.43
2022-11-25T04:05:13.173Z,36.50
2022-11-25T04:07:41.338Z,30.77
2022-11-25T04:10:10.519Z,31.83
2022-11-25T04:12:47.961Z,34.27
2022-11-25T04:15:18.304Z,31.97
2022-11-25T04:17:46.683Z,33.10
2022-11-25T04:20:16.947Z,31.93
2022-11-25T04:22:45.063Z,33.93
2022-11-25T04:25:13.332Z,36.03
2022-11-25T04:27:41.426Z,33.80
2022-11-25T04:30:10.371Z,32.40
2022-11-25T04:32:38.809Z,32.07
2022-11-25T04:35:07.809Z,35.93
2022-11-25T04:37:37.273Z,33.30
2022-11-25T04:40:06.603Z,32.63
2022-11-25T04:42:36.547Z,34.70
2022-11-25T04:45:23.449Z,30.87
2022-11-25T04:47:52.147Z,31.60
2022-11-25T04:50:22.710Z,32.10
2022-11-25T04:52:52.153Z,33.37
2022-11-25T04:55:20.190Z,33.43
2022-11-25T04:57:48.239Z,34.87
2022-11-25T05:00:15.938Z,38.57
2022-11-25T05:02:44.352Z,35.83
2022-11-25T05:05:12.400Z,36.77
2022-11-25T05:07:40.479Z,37.63
2022-11-25T05:10:10.517Z,37.17
2022-11-25T05:12:38.881Z,34.63
2022-11-25T05:15:08.396Z,35.13
2022-11-25T05:17:36.552Z,36.27
2022-11-25T05:20:06.402Z,41.67
2022-11-25T05:22:35.820Z,33.57
2022-11-25T05:25:05.778Z,35.63
2022-11-25T05:27:35.439Z,33.13
2022-11-25T05:30:03.666Z,34.97
2022-11-25T05:32:31.884Z,38.37
2022-11-25T05:35:00.030Z,36.83
2022-11-25T05:37:28.421Z,35.97
2022-11-25T05:39:56.486Z,35.50
2022-11-25T05:42:24.522Z,35.67
2022-11-25T05:44:53.927Z,37.03
2022-11-25T05:47:21.969Z,37.67
2022-11-25T05:49:50.221Z,35.73
2022-11-25T05:52:18.204Z,34.20
2022-11-25T05:54:46.303Z,35.60
2022-11-25T05:57:14.551Z,33.87
2022-11-25T05:59:42.673Z,34.53
2022-11-25T06:02:13.014Z,35.63
2022-11-25T06:04:41.131Z,30.77
2022-11-25T06:07:09.494Z,28.93
2022-11-25T06:09:37.590Z,30.93
2022-11-25T06:12:05.932Z,31.37
2022-11-25T06:14:34.404Z,31.50
2022-11-25T06:17:02.771Z,33.77
2022-11-25T06:19:32.586Z,31.70
2022-11-25T06:22:00.694Z,31.47
2022-11-25T06:24:28.803Z,30.27
2022-11-25T06:26:56.844Z,33.90
2022-11-25T06:29:25.234Z,33.77
2022-11-25T06:31:53.368Z,34.97
2022-11-25T06:34:21.367Z,32.80
2022-11-25T06:36:51.714Z,31.47
2022-11-25T06:39:19.753Z,31.77
2022-11-25T06:41:48.213Z,31.97
2022-11-25T06:44:16.329Z,32.67
2022-11-25T06:46:44.964Z,32.17
2022-11-25T06:49:12.996Z,33.17
2022-11-25T06:51:41.022Z,32.73
2022-11-25T06:54:10.534Z,33.20
2022-11-25T06:56:38.789Z,33.80
2022-11-25T06:59:07.616Z,35.33
2022-11-25T07:01:36.321Z,36.73
2022-11-25T07:04:06.112Z,31.60
2022-11-25T07:06:34.571Z,31.07
2022-11-25T07:09:03.318Z,33.97
2022-11-25T07:11:34.364Z,33.20
2022-11-25T07:14:04.841Z,32.97
2022-11-25T07:16:33.564Z,33.73
2022-11-25T07:19:02.368Z,32.47
2022-11-25T07:21:31.930Z,32.87
2022-11-25T07:24:00.978Z,33.83
2022-11-25T07:26:30.865Z,33.10
2022-11-25T07:29:02.744Z,34.53
2022-11-25T07:31:33.966Z,34.30
2022-11-25T07:34:04.145Z,31.17
2022-11-25T07:36:34.520Z,32.00
2022-11-25T07:39:07.429Z,31.63
2022-11-25T07:41:39.379Z,34.63
2022-11-25T07:44:09.497Z,32.50
2022-11-25T07:46:40.006Z,30.30
2022-11-25T07:49:11.651Z,30.13
2022-11-25T07:51:41.144Z,29.73
2022-11-25T07:54:11.199Z,28.80
2022-11-25T07:56:41.604Z,30.60
2022-11-25T07:59:14.358Z,30.07
2022-11-25T08:01:43.258Z,28.33
2022-11-25T08:04:20.528Z,27.87
2022-11-25T08:06:51.724Z,27.80
2022-11-25T08:09:25.650Z,29.40
2022-11-25T08:11:59.998Z,27.63
2022-11-25T08:14:30.860Z,26.33
2022-11-25T08:16:58.856Z,27.00
2022-11-25T08:19:31.265Z,27.13
2022-11-25T08:21:59.684Z,27.10
2022-11-25T08:24:28.290Z,27.87
2022-11-25T08:26:58.732Z,27.00
2022-11-25T08:29:26.798Z,24.93
2022-11-25T08:31:56.204Z,27.33
2022-11-25T08:34:25.605Z,26.73
2022-11-25T08:36:54.101Z,25.93
2022-11-25T08:39:50.690Z,26.50
2022-11-25T08:42:11.272Z,28.07
2022-11-25T08:44:39.377Z,29.40
2022-11-25T08:47:10.053Z,27.40
2022-11-25T08:49:41.246Z,26.73
2022-11-25T08:52:10.704Z,28.13
2022-11-25T08:54:39.080Z,28.20
2022-11-25T08:57:07.213Z,26.60
2022-11-25T08:59:35.899Z,26.77
2022-11-25T09:02:04.458Z,26.40
2022-11-25T09:04:33.932Z,28.00
2022-11-25T09:07:02.773Z,26.10
2022-11-25T09:09:30.843Z,26.50
2022-11-25T09:11:59.226Z,25.60
2022-11-25T09:14:27.375Z,26.00
2022-11-25T09:16:57.097Z,26.00
2022-11-25T09:19:25.151Z,24.90
2022-11-25T09:21:54.556Z,26.33
2022-11-25T09:24:22.562Z,27.40
2022-11-25T09:26:51.138Z,26.00
2022-11-25T09:29:19.207Z,25.60
2022-11-25T09:31:53.018Z,26.10
2022-11-25T09:34:22.748Z,26.10
2022-11-25T09:36:50.810Z,25.30
2022-11-25T09:39:20.244Z,28.03
2022-11-25T09:42:19.792Z,30.65
2022-11-25T09:45:21.057Z,24.83
2022-11-25T09:47:58.482Z,21.97
2022-11-25T09:50:41.269Z,23.33
2022-11-25T09:53:18.346Z,23.53
2022-11-25T09:55:50.781Z,24.73
2022-11-25T09:58:27.544Z,25.30
2022-11-25T10:00:56.082Z,24.00
2022-11-25T10:03:34.332Z,27.40
2022-11-25T10:06:06.609Z,25.40
2022-11-25T10:08:41.418Z,25.73
2022-11-25T10:11:22.420Z,23.67
2022-11-25T10:13:55.478Z,24.47
2022-11-25T10:16:33.660Z,23.93
2022-11-25T10:19:04.046Z,22.60
2022-11-25T10:21:32.274Z,23.87
2022-11-25T10:24:00.357Z,23.27
2022-11-25T10:26:36.992Z,24.87
2022-11-25T10:29:23.077Z,22.37
2022-11-25T10:31:57.746Z,23.57
2022-11-25T10:34:32.337Z,23.77
2022-11-25T10:37:03.205Z,24.67
2022-11-25T10:39:34.941Z,23.97
2022-11-25T10:42:08.160Z,23.03
2022-11-25T10:44:38.016Z,23.57
2022-11-25T10:47:20.342Z,24.87
2022-11-25T10:50:00.874Z,23.67
2022-11-25T10:52:31.867Z,24.37
2022-11-25T10:55:11.934Z,23.37
2022-11-25T10:57:41.494Z,25.20
2022-11-25T11:00:26.706Z,25.07
2022-11-25T11:02:55.931Z,24.30
2022-11-25T11:05:26.085Z,24.70
2022-11-25T11:08:11.251Z,25.93
2022-11-25T11:10:40.112Z,25.83
2022-11-25T11:13:24.142Z,25.40
2022-11-25T11:15:54.064Z,24.40
2022-11-25T11:18:28.842Z,24.20
2022-11-25T11:20:58.219Z,24.87
2022-11-25T11:23:27.430Z,25.93
2022-11-25T11:26:04.961Z,25.83
2022-11-25T11:28:41.179Z,25.17
2022-11-25T11:31:19.161Z,26.03
2022-11-25T11:33:56.727Z,29.10
2022-11-25T11:36:35.101Z,27.40
2022-11-25T11:39:21.658Z,27.63
2022-11-25T11:41:54.540Z,27.70
2022-11-25T11:44:32.215Z,27.87
2022-11-25T11:47:11.959Z,27.93
2022-11-25T11:49:57.284Z,29.13
2022-11-25T11:52:34.233Z,34.93
2022-11-25T11:55:13.471Z,31.10
2022-11-25T11:57:50.794Z,28.50
2022-11-25T12:00:21.933Z,27.53
2022-11-25T12:03:00.386Z,27.70
2022-11-25T12:05:31.196Z,27.17
2022-11-25T12:08:06.886Z,28.90
2022-11-25T12:10:39.073Z,27.80
2022-11-25T12:13:16.018Z,27.43
2022-11-25T12:15:53.161Z,27.80
2022-11-25T12:18:33.834Z,27.67
2022-11-25T12:21:05.182Z,26.87
2022-11-25T12:23:43.176Z,28.17
2022-11-25T12:26:18.959Z,27.67
2022-11-25T12:28:53.122Z,27.97
2022-11-25T12:31:28.050Z,27.17
2022-11-25T12:34:03.082Z,28.07
2022-11-25T12:36:35.822Z,28.10
2022-11-25T12:39:06.872Z,27.57
2022-11-25T12:41:42.934Z,28.17
2022-11-25T12:44:17.674Z,27.60
2022-11-25T12:46:49.485Z,30.97
2022-11-25T12:49:21.571Z,32.87
2022-11-25T12:52:28.789Z,31.70
2022-11-25T12:55:13.540Z,27.93
2022-11-25T12:58:12.101Z,29.10
2022-11-25T13:01:07.061Z,27.60
2022-11-25T13:04:21.169Z,28.03
2022-11-25T13:07:13.925Z,26.47
2022-11-25T13:10:23.598Z,28.50
2022-11-25T13:13:06.277Z,29.00
2022-11-25T13:15:40.095Z,29.30
2022-11-25T13:18:14.236Z,29.27
2022-11-25T13:20:52.230Z,27.80
2022-11-25T13:23:26.560Z,29.63
2022-11-25T13:26:34.193Z,28.10
2022-11-25T13:29:06.699Z,36.63
2022-11-25T13:31:58.881Z,31.07
2022-11-25T13:34:30.228Z,29.37
2022-11-25T13:37:00.678Z,28.07
2022-11-25T13:39:33.630Z,29.37
2022-11-25T13:42:04.548Z,29.50
2022-11-25T13:44:35.266Z,28.97
2022-11-25T13:47:34.028Z,34.03
2022-11-25T13:50:03.340Z,31.67
2022-11-25T13:52:43.239Z,30.23
2022-11-25T13:55:32.796Z,29.90
2022-11-25T13:58:17.902Z,29.40
2022-11-25T14:01:24.823Z,28.80
2022-11-25T14:04:00.230Z,29.83
2022-11-25T14:07:02.965Z,30.97
2022-11-25T14:09:55.955Z,28.07
2022-11-25T14:12:54.537Z,28.77
2022-11-25T14:15:45.614Z,28.17
2022-11-25T14:19:16.845Z,29.67
2022-11-25T14:21:44.438Z,29.23
2022-11-25T14:24:23.318Z,43.70
2022-11-25T14:26:55.168Z,31.43
2022-11-25T14:29:28.877Z,29.63
2022-11-25T14:32:00.764Z,29.33
2022-11-25T14:34:33.026Z,30.03
2022-11-25T14:37:07.058Z,29.47
2022-11-25T14:39:40.317Z,31.07
2022-11-25T14:42:11.741Z,30.37
2022-11-25T14:44:47.419Z,28.73
2022-11-25T14:47:15.560Z,28.33
2022-11-25T14:50:05.211Z,29.57
2022-11-25T14:52:37.942Z,31.93
2022-11-25T14:55:07.737Z,33.20
2022-11-25T14:57:39.295Z,31.37
2022-11-25T15:00:09.885Z,32.03
2022-11-25T15:02:41.001Z,29.03
2022-11-25T15:05:19.489Z,29.03
2022-11-25T15:07:58.562Z,30.37
2022-11-25T15:10:35.439Z,30.63
2022-11-25T15:13:12.424Z,30.90
2022-11-25T15:15:40.748Z,31.80
2022-11-25T15:18:15.391Z,30.00
2022-11-25T15:20:47.877Z,29.97
2022-11-25T15:23:24.285Z,29.60
2022-11-25T15:25:53.262Z,30.37
2022-11-25T15:28:22.702Z,30.17
2022-11-25T15:30:59.089Z,30.27
2022-11-25T15:33:29.067Z,30.13
2022-11-25T15:35:57.331Z,32.93
2022-11-25T15:38:43.063Z,30.60
2022-11-25T15:41:22.478Z,32.70
2022-11-25T15:43:56.283Z,29.67
2022-11-25T15:46:25.940Z,30.40
2022-11-25T15:48:58.358Z,30.00
2022-11-25T15:51:38.734Z,31.10
2022-11-25T15:54:16.446Z,28.50
2022-11-25T15:56:49.002Z,31.30
2022-11-25T15:59:56.731Z,30.50
2022-11-25T16:02:49.300Z,31.70
2022-11-25T16:05:33.643Z,32.00
2022-11-25T16:08:26.092Z,32.33
2022-11-25T16:10:56.891Z,31.60
2022-11-25T16:13:35.057Z,30.87
2022-11-25T16:16:21.846Z,28.67
2022-11-25T16:19:12.731Z,28.70
2022-11-25T16:21:45.053Z,30.27
2022-11-25T16:24:32.556Z,29.03
2022-11-25T16:27:02.681Z,28.50
2022-11-25T16:29:35.639Z,29.00
2022-11-25T16:32:14.728Z,29.50
2022-11-25T16:34:44.586Z,29.50
2022-11-25T16:37:12.637Z,29.23
2022-11-25T16:39:40.834Z,29.93
2022-11-25T16:42:13.902Z,31.83
2022-11-25T16:44:41.978Z,30.27
2022-11-25T16:47:11.850Z,30.60
2022-11-25T16:49:40.106Z,32.70
2022-11-25T16:52:09.600Z,29.73
2022-11-25T16:54:39.398Z,31.87
2022-11-25T16:57:07.962Z,32.03
2022-11-25T16:59:40.029Z,32.00
2022-11-25T17:02:19.021Z,32.30
2022-11-25T17:04:47.471Z,30.37
2022-11-25T17:07:34.524Z,30.33
2022-11-25T17:10:02.949Z,31.27
2022-11-25T17:12:34.244Z,30.27
2022-11-25T17:15:04.818Z,30.97
2022-11-25T17:17:33.521Z,30.77
2022-11-25T17:20:01.624Z,30.57
2022-11-25T17:22:36.028Z,35.43
2022-11-25T17:25:07.455Z,33.33
2022-11-25T17:27:35.824Z,33.17
2022-11-25T17:30:06.576Z,34.30
2022-11-25T17:32:35.467Z,31.37
2022-11-25T17:35:03.571Z,31.63
2022-11-25T17:37:33.071Z,30.27
2022-11-25T17:40:01.189Z,29.63
2022-11-25T17:42:31.557Z,29.63
2022-11-25T17:45:00.524Z,31.23
2022-11-25T17:47:28.535Z,33.23
2022-11-25T17:49:57.910Z,33.23
2022-11-25T17:52:26.172Z,33.57
2022-11-25T17:54:55.668Z,33.90
2022-11-25T17:57:29.195Z,35.67
2022-11-25T17:59:57.653Z,35.60
2022-11-25T18:02:25.887Z,39.33
2022-11-25T18:04:55.194Z,38.60
2022-11-25T18:07:23.472Z,42.20
2022-11-25T18:09:51.587Z,43.57
2022-11-25T18:12:27.651Z,44.63
2022-11-25T18:14:56.857Z,42.70
2022-11-25T18:17:24.989Z,44.30
2022-11-25T18:19:55.284Z,41.17
2022-11-25T18:22:24.766Z,40.77
2022-11-25T18:24:53.901Z,40.27
2022-11-25T18:27:27.061Z,38.60
2022-11-25T18:29:56.331Z,39.03
2022-11-25T18:32:25.779Z,40.23
2022-11-25T18:34:53.892Z,40.37
2022-11-25T18:37:22.101Z,40.30
2022-11-25T18:39:50.254Z,41.50
2022-11-25T18:42:26.026Z,42.07
2022-11-25T18:44:54.863Z,43.43
2022-11-25T18:47:23.265Z,41.43
2022-11-25T18:49:55.868Z,38.53
2022-11-25T18:52:24.693Z,40.57
2022-11-25T18:54:52.748Z,40.57
2022-11-25T18:57:21.002Z,38.43
2022-11-25T19:00:10.732Z,39.20
2022-11-25T19:02:39.195Z,38.70
2022-11-25T19:05:16.752Z,41.17
2022-11-25T19:07:45.096Z,40.53
2022-11-25T19:10:14.016Z,39.27
2022-11-25T19:12:44.535Z,43.47
2022-11-25T19:15:17.081Z,53.67
2022-11-25T19:17:49.056Z,56.87
2022-11-25T19:20:20.012Z,55.63
2022-11-25T19:22:48.592Z,49.83
2022-11-25T19:25:16.909Z,46.70
2022-11-25T19:27:47.990Z,57.40
2022-11-25T19:30:19.043Z,47.93
2022-11-25T19:32:49.626Z,46.47
2022-11-25T19:35:21.569Z,48.97
2022-11-25T19:37:49.596Z,50.63
2022-11-25T19:40:20.171Z,55.80
2022-11-25T19:42:48.497Z,52.47
2022-11-25T19:45:19.702Z,64.63
2022-11-25T19:47:50.358Z,58.23
2022-11-25T19:50:22.568Z,51.17
2022-11-25T19:52:50.904Z,49.60
2022-11-25T19:55:21.402Z,47.37
2022-11-25T19:57:50.613Z,51.73
2022-11-25T20:00:21.922Z,52.53
2022-11-25T20:02:51.810Z,52.03
2022-11-25T20:05:22.342Z,53.30
2022-11-25T20:07:50.534Z,52.87
2022-11-25T20:10:21.049Z,52.00
2022-11-25T20:12:49.683Z,52.50
2022-11-25T20:15:19.357Z,48.77
2022-11-25T20:17:49.821Z,55.27
2022-11-25T20:20:20.875Z,52.03
2022-11-25T20:22:56.348Z,54.37
2022-11-25T20:25:24.898Z,51.97
2022-11-25T20:27:52.967Z,52.93
2022-11-25T20:30:24.225Z,53.50
2022-11-25T20:32:52.713Z,50.07
2022-11-25T20:35:22.024Z,50.60
2022-11-25T20:37:57.560Z,52.37
2022-11-25T20:40:32.938Z,52.00
2022-11-25T20:43:01.451Z,47.00
2022-11-25T20:45:31.469Z,46.50
2022-11-25T20:47:59.571Z,46.93
2022-11-25T20:50:30.939Z,48.37
2022-11-25T20:52:59.062Z,48.07
2022-11-25T20:55:27.644Z,46.70
2022-11-25T20:57:55.857Z,51.30
2022-11-25T21:00:25.718Z,50.23
2022-11-25T21:02:57.098Z,48.80
2022-11-25T21:05:27.539Z,45.57
2022-11-25T21:07:55.717Z,47.50
2022-11-25T21:10:28.454Z,47.93
2022-11-25T21:12:56.890Z,45.90
2022-11-25T21:15:27.477Z,46.20
2022-11-25T21:17:58.223Z,44.83
2022-11-25T21:20:26.358Z,46.47
2022-11-25T21:22:57.970Z,45.43
2022-11-25T21:25:26.596Z,46.77
2022-11-25T21:27:57.525Z,48.77
2022-11-25T21:30:28.107Z,56.50
2022-11-25T21:32:59.490Z,48.97
2022-11-25T21:35:31.658Z,59.33
2022-11-25T21:38:02.978Z,62.03
2022-11-25T21:40:38.986Z,68.40
2022-11-25T21:43:15.016Z,73.60
2022-11-25T21:45:47.589Z,70.43
2022-11-25T21:48:21.135Z,72.77
2022-11-25T21:50:49.566Z,70.93
2022-11-25T21:53:17.800Z,67.67
2022-11-25T21:55:46.190Z,69.83
2022-11-25T21:58:18.443Z,71.30
2022-11-25T22:00:50.441Z,67.53
2022-11-25T22:03:21.380Z,71.20
2022-11-25T22:05:50.216Z,68.27
2022-11-25T22:08:18.828Z,62.00
2022-11-25T22:10:50.215Z,62.63
2022-11-25T22:13:21.359Z,64.07
2022-11-25T22:15:56.816Z,66.23
2022-11-25T22:18:31.342Z,67.13
2022-11-25T22:21:00.068Z,65.63
2022-11-25T22:23:29.866Z,66.10
2022-11-25T22:25:58.848Z,64.33
2022-11-25T22:28:29.972Z,64.93
2022-11-25T22:31:01.143Z,60.47
2022-11-25T22:33:33.356Z,60.83
2022-11-25T22:36:02.298Z,65.87
2022-11-25T22:38:31.167Z,65.80
2022-11-25T22:41:02.543Z,62.57
2022-11-25T22:43:35.106Z,63.40
2022-11-25T22:46:05.036Z,63.10
2022-11-25T22:48:38.937Z,63.30
2022-11-25T22:51:07.754Z,66.50
2022-11-25T22:53:38.783Z,65.73
2022-11-25T22:56:13.360Z,63.53
2022-11-25T22:58:41.626Z,67.47
2022-11-25T23:01:12.799Z,63.90
2022-11-25T23:03:42.873Z,64.13
2022-11-25T23:06:12.846Z,63.30
2022-11-25T23:08:41.494Z,65.53
2022-11-25T23:11:16.383Z,67.23
2022-11-25T23:13:44.617Z,68.07
2022-11-25T23:16:13.195Z,70.50
2022-11-25T23:18:44.193Z,72.40
2022-11-25T23:21:18.465Z,65.23
2022-11-25T23:23:46.873Z,63.73
2022-11-25T23:26:15.812Z,66.20
2022-11-25T23:28:43.828Z,64.23
2022-11-25T23:31:13.947Z,61.60
2022-11-25T23:33:45.860Z,64.67
2022-11-25T23:36:16.613Z,61.47
2022-11-25T23:38:47.669Z,64.27
2022-11-25T23:41:18.975Z,56.67
2022-11-25T23:43:47.174Z,53.13
2022-11-25T23:46:16.417Z,52.93
2022-11-25T23:48:51.721Z,57.90
2022-11-25T23:51:19.985Z,55.27
2022-11-25T23:53:48.081Z,54.73
2022-11-25T23:56:16.240Z,54.47
2022-11-25T23:58:44.335Z,50.87
